This is the latest recevied weather packets stored in our database for station/object IV3CGM-13. If no packets are shown the sender has not sent any weather packets the latest 10 day(s).
| Time | Temp. | Humidity | Pressure | Rain* | Wind** | Luminosity | Snow |
|---|---|---|---|---|---|---|---|
| 1777573286 | 11.67° C | 51% | 1023.6 hPa | 0 mm | - | 2 W/m² | - |
| 1777572599 | 11.67° C | 60% | 1023.4 hPa | 0 mm | - | 6 W/m² | - |
| 1777571912 | 12.22° C | 54% | 1023.3 hPa | 0 mm | - | 13 W/m² | - |
| 1777571224 | 12.22° C | 51% | 1023.1 hPa | 0 mm | - | 20 W/m² | - |
| 1777570488 | 12.22° C | 50% | 1023 hPa | 0 mm | - | 28 W/m² | - |
| 1777569786 | 13.33° C | 53% | 1022.9 hPa | 0 mm | - | 35 W/m² | - |
| 1777569099 | 12.78° C | 55% | 1022.8 hPa | 0 mm | - | 42 W/m² | - |
| 1777568411 | 13.89° C | 47% | 1022.7 hPa | 0 mm | - | 49 W/m² | - |
| 1777567711 | 14.44° C | 54% | 1022.6 hPa | 0 mm | - | 76 W/m² | - |
| 1777566974 | 15.56° C | 51% | 1022.6 hPa | 0 mm | - | 109 W/m² | - |
| 1777566273 | 16.67° C | 41% | 1022.5 hPa | 0 mm | - | 138 W/m² | - |
| 1777565586 | 16.67° C | 36% | 1022.5 hPa | 0 mm | - | 167 W/m² | - |
| 1777564898 | 16.67° C | 36% | 1022.4 hPa | 0 mm | - | 201 W/m² | - |
| 1777564210 | 16.67° C | 36% | 1022.4 hPa | 0 mm | - | 234 W/m² | - |
| 1777563474 | 16.67° C | 35% | 1022.3 hPa | 0 mm | - | 275 W/m² | - |
| 1777562773 | 17.22° C | 40% | 1022.3 hPa | 0 mm | - | 316 W/m² | - |
| 1777562085 | 17.22° C | 35% | 1022.3 hPa | 0 mm | - | 348 W/m² | - |
| 1777561397 | 17.78° C | 36% | 1022.3 hPa | 0 mm | - | 391 W/m² | - |
| 1777560710 | 17.22° C | 37% | 1022.3 hPa | 0 mm | - | 425 W/m² | - |
| 1777559974 | 17.22° C | 35% | 1022.4 hPa | 0 mm | - | 467 W/m² | - |
| 1777559273 | 17.22° C | 38% | 1022.5 hPa | 0 mm | - | 502 W/m² | - |
| 1777558585 | 17.22° C | 37% | 1022.6 hPa | 0 mm | - | 541 W/m² | - |
| 1777557898 | 17.22° C | 38% | 1022.5 hPa | 0 mm | - | 570 W/m² | - |
| 1777557210 | 17.22° C | 38% | 1022.6 hPa | 0 mm | - | 600 W/m² | - |
| 1777556523 | 16.67° C | 41% | 1022.7 hPa | 0 mm | - | 631 W/m² | - |
* Rain latest hour (hover to see other rain measurements)
** Current wind speed in m/s (hover to see current wind gust speed)